Time;durP1;ratioP1;P1;durP2;ratioP2;P2;SDS_P1;SDS_P2;PMS_P1;PMS_P2;Temp;Humidity;BMP_temperature;BMP_pressure;BME280_temperature;BME280_humidity;BME280_pressure;Samples;Min_cycle;Max_cycle;Signal;HPM_P1;HPM_P2
2022/10/19 00:00:26;;;;;;;304.23;168.73;;;;;;;;;;5003271;28;20583;-57
2022/10/19 00:02:52;;;;;;;435.87;235.30;;;10.90;99.90;;;;;;4997709;28;20910;-56
2022/10/19 00:05:17;;;;;;;307.20;168.83;;;10.30;99.90;;;;;;5002265;28;20299;-57
2022/10/19 00:07:43;;;;;;;409.13;224.37;;;;;;;;;;5006934;28;20323;-57
2022/10/19 00:10:09;;;;;;;342.57;188.77;;;;;;;;;;5003156;28;20207;-57
2022/10/19 00:12:35;;;;;;;316.03;165.83;;;;;;;;;;5005726;28;20753;-57
2022/10/19 00:15:01;;;;;;;292.33;163.40;;;10.60;99.90;;;;;;5005228;28;20216;-56
2022/10/19 00:17:27;;;;;;;317.73;172.90;;;10.90;99.90;;;;;;5004619;28;20192;-57
2022/10/19 00:19:53;;;;;;;456.93;250.63;;;;;;;;;;5006702;28;20611;-56
2022/10/19 00:22:18;;;;;;;276.33;155.13;;;10.70;99.90;;;;;;5001964;28;20219;-57
2022/10/19 00:24:44;;;;;;;416.90;227.23;;;10.60;99.90;;;;;;5007040;28;20212;-56
2022/10/19 00:27:10;;;;;;;325.33;176.83;;;;;;;;;;5004091;28;20228;-57
2022/10/19 00:29:37;;;;;;;296.20;166.53;;;10.70;99.90;;;;;;5005692;28;21141;-57
2022/10/19 00:32:03;;;;;;;322.33;184.50;;;;;;;;;;5003448;28;20219;-57
2022/10/19 00:34:29;;;;;;;284.97;162.97;;;;;;;;;;5014167;28;20832;-57
2022/10/19 00:36:55;;;;;;;310.27;173.53;;;;;;;;;;5005498;28;20611;-58
2022/10/19 00:39:21;;;;;;;268.03;149.80;;;;;;;;;;5009767;28;20203;-56
2022/10/19 00:41:46;;;;;;;411.37;233.77;;;12.10;99.90;;;;;;5002169;28;20266;-57
2022/10/19 00:44:12;;;;;;;289.53;165.77;;;10.70;99.90;;;;;;5003921;28;20243;-58
2022/10/19 00:46:40;;;;;;;333.03;183.53;;;10.70;99.90;;;;;;5004959;28;20232;-56
2022/10/19 00:49:19;;;;;;;345.67;192.03;;;10.80;99.90;;;;;;5012973;28;20242;-57
2022/10/19 00:51:49;;;;;;;283.23;156.63;;;10.70;99.90;;;;;;5005250;28;20215;-57
2022/10/19 00:54:16;;;;;;;303.37;171.17;;;10.70;99.90;;;;;;5003837;28;20212;-57
2022/10/19 00:56:43;;;;;;;244.63;143.17;;;10.40;99.90;;;;;;5001343;28;20884;-58
2022/10/19 00:59:10;;;;;;;371.73;208.60;;;;;;;;;;5000529;28;20177;-57
2022/10/19 01:01:36;;;;;;;329.97;186.23;;;;;;;;;;5002568;28;20265;-57
2022/10/19 01:04:03;;;;;;;396.93;217.37;;;10.90;99.90;;;;;;5003507;28;20934;-58
2022/10/19 01:06:29;;;;;;;329.17;188.67;;;10.90;99.90;;;;;;5004434;28;20216;-58
2022/10/19 01:08:55;;;;;;;279.13;157.53;;;;;;;;;;5007937;28;20715;-57
2022/10/19 01:11:35;;;;;;;248.53;143.90;;;10.80;99.90;;;;;;5007254;28;20537;-58
2022/10/19 01:14:23;;;;;;;396.17;230.87;;;10.90;99.90;;;;;;5000820;28;20290;-58
2022/10/19 01:17:14;;;;;;;280.20;156.73;;;10.90;99.90;;;;;;5002605;28;20220;-57
2022/10/19 01:20:11;;;;;;;387.17;219.37;;;10.90;99.90;;;;;;5005887;28;21109;-57
2022/10/19 01:23:09;;;;;;;445.67;258.53;;;10.90;99.90;;;;;;5010391;28;20228;-57
2022/10/19 01:25:35;;;;;;;217.10;127.43;;;;;;;;;;5005791;28;20678;-57
2022/10/19 01:28:24;;;;;;;263.47;153.07;;;10.90;99.90;;;;;;5005036;28;20223;-57
2022/10/19 01:31:03;;;;;;;408.33;222.07;;;10.80;99.90;;;;;;5008772;28;20319;-58
2022/10/19 01:33:56;;;;;;;319.23;175.83;;;11.00;99.90;;;;;;5007422;28;20685;-57
2022/10/19 01:36:48;;;;;;;353.90;202.07;;;10.00;99.90;;;;;;5006491;28;20719;-59
2022/10/19 01:39:38;;;;;;;448.83;252.83;;;10.90;99.90;;;;;;5000252;28;20731;-57
2022/10/19 01:42:10;;;;;;;309.40;173.47;;;11.00;99.90;;;;;;4990187;28;20308;-57
2022/10/19 01:44:51;;;;;;;271.70;154.57;;;11.40;99.90;;;;;;4987983;28;20213;-56
2022/10/19 01:47:25;;;;;;;357.20;207.03;;;10.90;99.90;;;;;;4989486;28;21322;-56
2022/10/19 01:49:59;;;;;;;309.60;172.87;;;11.00;99.90;;;;;;4986498;28;20214;-57
2022/10/19 01:52:26;;;;;;;279.50;159.83;;;10.00;99.90;;;;;;4986599;28;20223;-58
2022/10/19 01:54:56;;;;;;;328.93;185.40;;;10.70;99.90;;;;;;4983870;28;20228;-56
2022/10/19 01:57:35;;;;;;;262.13;150.73;;;10.70;99.90;;;;;;4990119;28;20209;-58
2022/10/19 02:00:06;;;;;;;430.30;240.10;;;10.80;99.90;;;;;;4977004;28;20216;-58
2022/10/19 02:02:35;;;;;;;275.23;158.03;;;10.80;99.90;;;;;;4984772;28;20228;-57
2022/10/19 02:05:03;;;;;;;333.33;187.27;;;10.80;99.90;;;;;;4985297;28;20541;-58
2022/10/19 02:07:29;;;;;;;215.27;125.20;;;10.80;99.90;;;;;;4986592;28;20216;-57
2022/10/19 02:09:56;;;;;;;400.10;222.47;;;11.00;99.90;;;;;;4989319;28;20215;-57
2022/10/19 02:12:23;;;;;;;347.23;196.00;;;10.80;99.90;;;;;;4986929;28;20216;-57
2022/10/19 02:14:53;;;;;;;324.53;184.87;;;10.60;99.90;;;;;;4990767;28;20239;-57
2022/10/19 02:17:24;;;;;;;362.80;209.33;;;10.70;99.90;;;;;;4986529;28;20220;-57
2022/10/19 02:19:51;;;;;;;319.93;183.63;;;10.50;99.90;;;;;;4979373;28;20222;-57
2022/10/19 02:22:16;;;;;;;314.00;182.30;;;10.70;99.90;;;;;;4985808;28;20220;-57
2022/10/19 02:24:42;;;;;;;300.77;173.90;;;;;;;;;;4982859;28;20212;-57
2022/10/19 02:27:09;;;;;;;290.83;169.40;;;10.80;99.90;;;;;;4986520;28;20269;-56
2022/10/19 02:29:36;;;;;;;294.70;166.63;;;11.10;99.90;;;;;;5002119;28;20319;-57
2022/10/19 02:32:03;;;;;;;342.17;190.07;;;10.90;99.90;;;;;;4994469;28;20391;-57
2022/10/19 02:34:29;;;;;;;349.07;196.30;;;;;;;;;;4984537;28;20266;-57
2022/10/19 02:36:56;;;;;;;343.70;195.00;;;10.80;99.90;;;;;;4991968;28;20216;-57
2022/10/19 02:39:22;;;;;;;418.87;243.17;;;;;;;;;;4986225;28;20314;-56
2022/10/19 02:41:50;;;;;;;370.73;215.83;;;10.70;99.90;;;;;;4987407;28;22364;-57
2022/10/19 02:44:28;;;;;;;365.40;205.60;;;10.70;99.90;;;;;;4989679;28;20185;-57
2022/10/19 02:47:01;;;;;;;244.83;143.00;;;10.70;99.90;;;;;;4997773;28;20236;-57
2022/10/19 02:49:28;;;;;;;356.40;204.60;;;10.70;99.90;;;;;;4985881;28;20217;-57
2022/10/19 02:52:00;;;;;;;393.73;224.67;;;10.60;99.90;;;;;;4983625;28;20735;-58
2022/10/19 02:54:27;;;;;;;327.50;186.23;;;10.90;99.90;;;;;;4987497;28;20686;-56
2022/10/19 02:56:53;;;;;;;296.23;175.87;;;10.80;99.90;;;;;;4987333;28;20224;-57
2022/10/19 02:59:19;;;;;;;227.57;135.73;;;10.90;99.90;;;;;;4985505;28;20181;-57
2022/10/19 03:01:44;;;;;;;212.03;126.20;;;10.80;99.90;;;;;;4997679;28;20239;-57
2022/10/19 03:04:10;;;;;;;328.40;186.03;;;11.50;99.90;;;;;;5010501;28;20216;-57
2022/10/19 03:06:36;;;;;;;341.00;194.87;;;;;;;;;;5007176;28;20220;-57
2022/10/19 03:09:02;;;;;;;382.53;221.77;;;;;;;;;;5015405;28;20208;-57
2022/10/19 03:11:27;;;;;;;377.07;213.97;;;10.80;99.90;;;;;;5006043;28;20689;-57
2022/10/19 03:13:53;;;;;;;353.27;204.40;;;;;;;;;;5006414;28;20207;-57
2022/10/19 03:16:19;;;;;;;320.37;186.23;;;;;;;;;;5008345;28;20248;-57
2022/10/19 03:18:48;;;;;;;386.90;221.20;;;10.70;99.90;;;;;;5008520;28;20246;-57
2022/10/19 03:21:14;;;;;;;392.47;226.10;;;;;;;;;;5015181;28;20224;-57
2022/10/19 03:23:40;;;;;;;351.50;194.10;;;10.60;99.90;;;;;;5007495;28;20212;-58
2022/10/19 03:26:08;;;;;;;348.30;189.53;;;10.90;99.90;;;;;;5008694;28;20551;-57
2022/10/19 03:28:34;;;;;;;353.83;198.93;;;;;;;;;;5004246;28;20209;-57
2022/10/19 03:31:00;;;;;;;386.50;214.00;;;;;;;;;;5010793;28;20216;-58
2022/10/19 03:33:26;;;;;;;392.63;226.13;;;;;;;;;;5004273;28;20329;-57
2022/10/19 03:36:30;;;;;;;348.03;201.00;;;10.60;99.90;;;;;;5001039;28;20392;-57
2022/10/19 03:38:59;;;;;;;240.30;144.23;;;10.90;99.90;;;;;;5005703;28;20307;-57
2022/10/19 03:41:27;;;;;;;273.70;160.80;;;10.90;99.90;;;;;;5006183;28;20177;-58
2022/10/19 03:43:53;;;;;;;348.20;192.37;;;10.80;99.90;;;;;;5002105;28;20184;-56
2022/10/19 03:46:19;;;;;;;482.97;272.83;;;10.90;99.90;;;;;;5004353;28;20641;-57
2022/10/19 03:48:45;;;;;;;283.40;160.60;;;11.00;99.90;;;;;;5012338;28;20201;-57
2022/10/19 03:51:13;;;;;;;403.20;233.60;;;10.90;99.90;;;;;;4996090;28;20278;-59
2022/10/19 03:53:40;;;;;;;373.93;213.43;;;11.90;99.90;;;;;;5000249;28;20262;-57
2022/10/19 03:56:12;;;;;;;306.37;181.73;;;11.50;99.90;;;;;;5006352;28;20544;-57
2022/10/19 03:58:39;;;;;;;361.83;207.83;;;11.00;99.90;;;;;;5005359;28;20258;-59
2022/10/19 04:01:29;;;;;;;298.77;174.07;;;11.10;99.90;;;;;;4994240;28;20209;-57
2022/10/19 04:03:56;;;;;;;309.57;173.63;;;10.80;99.90;;;;;;5003005;28;20216;-57
2022/10/19 04:06:28;;;;;;;368.30;214.30;;;10.70;99.90;;;;;;4999963;28;20373;-57
2022/10/19 04:08:54;;;;;;;365.77;205.43;;;;;;;;;;5001172;28;20243;-58
2022/10/19 04:11:23;;;;;;;337.63;196.87;;;10.70;99.90;;;;;;5000492;28;20266;-58
2022/10/19 04:13:50;;;;;;;299.37;171.93;;;11.10;99.90;;;;;;5003330;28;20188;-57
2022/10/19 04:16:16;;;;;;;279.57;162.37;;;10.90;99.90;;;;;;4996728;28;20215;-57
2022/10/19 04:18:42;;;;;;;292.30;167.77;;;10.90;99.90;;;;;;5000112;28;20633;-58
2022/10/19 04:21:25;;;;;;;331.47;191.30;;;10.90;99.90;;;;;;4997302;28;20224;-57
2022/10/19 04:23:53;;;;;;;382.73;214.43;;;10.80;99.90;;;;;;5008740;28;20330;-57
2022/10/19 04:26:19;;;;;;;292.30;168.40;;;10.90;99.90;;;;;;5003076;28;20235;-58
2022/10/19 04:28:46;;;;;;;391.73;229.17;;;;;;;;;;5000608;28;20217;-58
2022/10/19 04:31:12;;;;;;;322.63;186.43;;;;;;;;;;5003959;28;20220;-56
2022/10/19 04:33:38;;;;;;;353.17;212.00;;;10.80;99.90;;;;;;4994916;28;20209;-57
2022/10/19 04:36:06;;;;;;;279.97;165.20;;;10.90;99.90;;;;;;4985557;28;20221;-57
2022/10/19 04:38:32;;;;;;;257.90;153.90;;;;;;;;;;4983756;28;20284;-57
2022/10/19 04:41:05;;;;;;;369.10;217.00;;;11.00;99.90;;;;;;4977261;28;20184;-58
2022/10/19 04:43:31;;;;;;;350.03;203.97;;;10.90;99.90;;;;;;4988368;28;20265;-57
2022/10/19 04:46:01;;;;;;;324.93;191.60;;;10.80;99.90;;;;;;4980455;28;20221;-57
2022/10/19 04:48:27;;;;;;;308.60;181.20;;;10.80;99.90;;;;;;4980466;28;20227;-57
2022/10/19 04:50:54;;;;;;;351.33;203.07;;;10.80;99.90;;;;;;4974464;28;20217;-57
2022/10/19 04:53:20;;;;;;;334.70;192.60;;;;;;;;;;4982637;28;20197;-58
2022/10/19 04:55:46;;;;;;;396.93;225.67;;;;;;;;;;4976076;28;20221;-57
2022/10/19 04:58:11;;;;;;;366.03;205.57;;;10.70;99.90;;;;;;4978984;28;20212;-57
2022/10/19 05:00:38;;;;;;;310.23;176.50;;;10.90;99.90;;;;;;4977720;28;20212;-57
2022/10/19 05:03:04;;;;;;;343.40;197.03;;;10.80;99.90;;;;;;4985417;28;20217;-58
2022/10/19 05:05:31;;;;;;;283.83;171.63;;;10.80;99.90;;;;;;4981477;28;20303;-57
2022/10/19 05:07:57;;;;;;;364.83;209.73;;;;;;;;;;4986563;28;20225;-57
2022/10/19 05:10:22;;;;;;;368.33;209.20;;;10.80;99.90;;;;;;5007726;28;20223;-57
2022/10/19 05:12:48;;;;;;;256.80;159.13;;;10.80;99.90;;;;;;5001419;28;21197;-57
2022/10/19 05:15:13;;;;;;;267.27;160.57;;;10.80;99.90;;;;;;5006263;28;20213;-57
2022/10/19 05:17:39;;;;;;;347.03;201.43;;;10.70;99.90;;;;;;5008541;28;20327;-58
2022/10/19 05:20:05;;;;;;;365.00;209.03;;;10.90;99.90;;;;;;5005928;28;20193;-58
2022/10/19 05:22:31;;;;;;;365.13;211.10;;;10.80;99.90;;;;;;4994267;28;22400;-57
2022/10/19 05:24:56;;;;;;;396.63;222.53;;;10.90;99.90;;;;;;5000035;28;20244;-57
2022/10/19 05:27:22;;;;;;;311.83;173.77;;;10.70;99.90;;;;;;4990713;28;20815;-57
2022/10/19 05:29:47;;;;;;;333.80;201.87;;;10.70;99.90;;;;;;5013268;28;20277;-57
2022/10/19 05:32:13;;;;;;;244.67;141.17;;;10.80;99.90;;;;;;4980758;28;20645;-57
2022/10/19 05:34:39;;;;;;;298.73;175.77;;;;;;;;;;4998931;28;20247;-57
2022/10/19 05:37:05;;;;;;;319.67;186.40;;;10.80;99.90;;;;;;5001283;28;20608;-57
2022/10/19 05:39:31;;;;;;;326.83;190.70;;;;;;;;;;4986666;28;20334;-58
2022/10/19 05:41:56;;;;;;;395.83;223.53;;;10.70;99.90;;;;;;4996902;28;20222;-57
2022/10/19 05:44:22;;;;;;;284.03;164.77;;;10.90;99.90;;;;;;5005233;28;20205;-58
2022/10/19 05:46:50;;;;;;;378.07;220.03;;;10.70;99.90;;;;;;4994631;28;20231;-57
2022/10/19 05:49:18;;;;;;;400.10;222.90;;;10.80;99.90;;;;;;4995994;28;20731;-58
2022/10/19 05:51:44;;;;;;;422.30;246.67;;;;;;;;;;4979344;28;20212;-57
2022/10/19 05:54:13;;;;;;;406.87;239.93;;;10.90;99.90;;;;;;4990804;28;20227;-57
2022/10/19 05:56:40;;;;;;;298.07;175.47;;;11.10;99.90;;;;;;4994609;28;20831;-57
2022/10/19 05:59:07;;;;;;;357.93;205.13;;;11.00;99.90;;;;;;4998531;28;21158;-56
2022/10/19 06:01:33;;;;;;;315.77;176.70;;;11.10;99.90;;;;;;4997301;28;20209;-57
2022/10/19 06:04:01;;;;;;;358.43;208.60;;;11.30;99.90;;;;;;4985121;28;20230;-57
2022/10/19 06:06:27;;;;;;;350.87;200.57;;;10.90;99.90;;;;;;4976008;28;20731;-56
2022/10/19 06:08:54;;;;;;;331.70;186.07;;;10.90;99.90;;;;;;4980235;28;20221;-57
2022/10/19 06:11:25;;;;;;;244.67;147.17;;;11.10;99.90;;;;;;4985175;28;20323;-57
2022/10/19 06:13:53;;;;;;;301.27;181.60;;;10.80;99.90;;;;;;4981566;28;20216;-56
2022/10/19 06:16:20;;;;;;;321.33;186.87;;;9.30;99.90;;;;;;4982460;28;20715;-56
2022/10/19 06:18:46;;;;;;;321.13;182.07;;;11.10;99.90;;;;;;4984546;28;20256;-56
2022/10/19 06:21:17;;;;;;;325.03;179.07;;;11.10;99.90;;;;;;4982265;28;20221;-55
2022/10/19 06:23:43;;;;;;;323.23;177.33;;;;;;;;;;4987054;28;20655;-57
2022/10/19 06:26:13;;;;;;;311.50;174.17;;;11.00;99.90;;;;;;5000606;28;20212;-56
2022/10/19 06:28:40;;;;;;;248.43;146.00;;;11.00;99.90;;;;;;4980026;28;20247;-56
2022/10/19 06:31:07;;;;;;;438.47;247.97;;;;;;;;;;4989486;28;20299;-58
2022/10/19 06:33:33;;;;;;;347.20;196.50;;;;;;;;;;4998268;28;20247;-56
2022/10/19 06:36:10;;;;;;;381.83;211.17;;;11.10;99.90;;;;;;4999484;28;20220;-57
2022/10/19 06:38:35;;;;;;;267.50;151.37;;;11.60;99.90;;;;;;5000176;28;20215;-55
2022/10/19 06:41:01;;;;;;;442.10;235.87;;;11.10;99.90;;;;;;4978222;28;20712;-55
2022/10/19 06:43:27;;;;;;;367.97;212.00;;;11.10;99.90;;;;;;4994791;28;20559;-55
2022/10/19 06:45:53;;;;;;;396.47;220.30;;;11.00;99.90;;;;;;4996160;28;20691;-53
2022/10/19 06:48:19;;;;;;;559.40;319.27;;;;;;;;;;4984554;28;20831;-55
2022/10/19 06:50:44;;;;;;;459.03;262.80;;;10.90;99.90;;;;;;4990361;28;20211;-54
2022/10/19 06:53:10;;;;;;;292.57;168.83;;;11.10;99.90;;;;;;5001853;28;20187;-54
2022/10/19 06:55:36;;;;;;;349.50;203.87;;;11.30;99.90;;;;;;4989099;28;20220;-56
2022/10/19 06:58:02;;;;;;;366.17;211.73;;;;;;;;;;4995745;28;20842;-57
2022/10/19 07:00:29;;;;;;;359.80;211.20;;;11.30;99.90;;;;;;4996726;28;20697;-56
2022/10/19 07:02:55;;;;;;;372.50;207.67;;;11.20;99.90;;;;;;5004158;28;20219;-57
2022/10/19 07:05:21;;;;;;;310.43;172.47;;;10.00;99.90;;;;;;5005569;28;20231;-57
2022/10/19 07:07:46;;;;;;;307.27;173.23;;;11.20;99.90;;;;;;5002979;28;20290;-56
2022/10/19 07:10:12;;;;;;;327.43;197.60;;;11.10;99.90;;;;;;4999376;28;20241;-56
2022/10/19 07:12:38;;;;;;;388.03;221.27;;;;;;;;;;4996107;28;20212;-56
2022/10/19 07:15:04;;;;;;;366.23;213.60;;;;;;;;;;4989716;28;20248;-57
2022/10/19 07:17:30;;;;;;;397.70;230.93;;;11.40;99.90;;;;;;4982145;28;20191;-56
2022/10/19 07:19:56;;;;;;;374.77;214.90;;;11.60;99.90;;;;;;5004988;28;20568;-56
2022/10/19 07:22:21;;;;;;;266.43;160.50;;;11.50;99.90;;;;;;5005078;28;20208;-56
2022/10/19 07:24:47;;;;;;;344.77;198.70;;;11.50;99.90;;;;;;4999047;28;20736;-56
2022/10/19 07:27:13;;;;;;;290.20;163.83;;;11.60;99.90;;;;;;5004087;28;20224;-56
2022/10/19 07:29:38;;;;;;;416.83;233.90;;;11.60;99.90;;;;;;5002581;28;20356;-56
2022/10/19 07:32:04;;;;;;;455.27;257.33;;;;;;;;;;5000684;28;20192;-56
2022/10/19 07:34:30;;;;;;;376.60;212.70;;;11.80;99.90;;;;;;5002709;28;20454;-55
2022/10/19 07:36:56;;;;;;;451.07;255.40;;;;;;;;;;5007336;28;20216;-56
2022/10/19 07:39:22;;;;;;;407.33;227.57;;;11.90;99.90;;;;;;5001849;28;20208;-56
2022/10/19 07:41:47;;;;;;;388.70;223.33;;;11.60;99.90;;;;;;4997939;28;20216;-57
2022/10/19 07:44:14;;;;;;;430.80;242.83;;;11.60;99.90;;;;;;4992984;28;20184;-56
2022/10/19 07:46:40;;;;;;;380.30;221.90;;;;;;;;;;4998380;28;20232;-58
2022/10/19 07:49:09;;;;;;;352.30;202.23;;;11.70;99.90;;;;;;4998206;28;20270;-55
2022/10/19 07:51:37;;;;;;;440.20;251.53;;;11.60;99.90;;;;;;5015025;28;20256;-57
2022/10/19 07:54:02;;;;;;;294.53;171.87;;;11.80;99.90;;;;;;5004231;28;20227;-56
2022/10/19 07:56:29;;;;;;;422.07;238.17;;;13.50;99.90;;;;;;4990260;28;20659;-56
2022/10/19 07:58:57;;;;;;;412.13;238.77;;;11.80;99.90;;;;;;4993735;28;20543;-56
2022/10/19 08:01:25;;;;;;;359.13;206.17;;;11.80;99.90;;;;;;4993123;28;23393;-56
2022/10/19 08:03:52;;;;;;;387.33;219.80;;;11.80;99.90;;;;;;4994026;28;20219;-55
2022/10/19 08:06:19;;;;;;;318.73;177.80;;;;;;;;;;4995549;28;20224;-55
2022/10/19 08:08:45;;;;;;;323.40;177.83;;;11.80;99.90;;;;;;5005765;28;20638;-56
2022/10/19 08:11:17;;;;;;;238.70;139.70;;;11.90;99.90;;;;;;5011098;28;20235;-56
2022/10/19 08:13:43;;;;;;;423.93;243.67;;;;;;;;;;4982683;28;20227;-56
2022/10/19 08:16:27;;;;;;;342.00;193.13;;;11.90;99.90;;;;;;5001831;28;20212;-55
2022/10/19 08:18:56;;;;;;;305.33;178.90;;;12.10;99.90;;;;;;5009562;28;20423;-55
2022/10/19 08:21:22;;;;;;;367.47;209.20;;;12.10;99.90;;;;;;4997773;28;20283;-57
2022/10/19 08:23:47;;;;;;;289.47;162.70;;;11.90;99.90;;;;;;5006890;28;20255;-58
2022/10/19 08:26:13;;;;;;;443.77;254.17;;;;;;;;;;5000749;28;20220;-57
2022/10/19 08:28:39;;;;;;;373.53;206.20;;;;;;;;;;5004483;28;20262;-56
2022/10/19 08:31:13;;;;;;;390.97;215.43;;;12.50;99.90;;;;;;5009074;28;20204;-55
2022/10/19 08:33:40;;;;;;;371.57;212.03;;;12.80;99.90;;;;;;5005534;28;20576;-55
2022/10/19 08:36:07;;;;;;;409.13;232.97;;;13.00;99.90;;;;;;5002133;28;20335;-55
2022/10/19 08:38:35;;;;;;;388.80;214.97;;;12.70;99.90;;;;;;4999853;28;20240;-56
2022/10/19 08:41:32;;;;;;;466.63;258.03;;;12.80;99.90;;;;;;5000746;28;20176;-56
2022/10/19 08:43:58;;;;;;;366.10;202.87;;;;;;;;;;4985539;28;20213;-56
2022/10/19 08:46:45;;;;;;;342.67;190.37;;;12.80;99.90;;;;;;4987815;28;20232;-56
2022/10/19 08:49:17;;;;;;;497.40;280.17;;;14.00;99.90;;;;;;4976864;28;20221;-55
2022/10/19 08:51:46;;;;;;;415.10;227.93;;;12.90;99.90;;;;;;4980390;28;20216;-56
2022/10/19 08:54:16;;;;;;;455.90;261.70;;;12.90;99.90;;;;;;4983636;28;20208;-56
2022/10/19 08:57:07;;;;;;;553.17;325.43;;;12.90;99.90;;;;;;4971041;28;20773;-55
2022/10/19 08:59:48;;;;;;;455.63;245.87;;;13.30;99.90;;;;;;4981757;28;20285;-56
2022/10/19 09:02:24;;;;;;;471.23;263.13;;;13.10;99.90;;;;;;4977497;28;20193;-56
2022/10/19 09:04:58;;;;;;;410.67;230.73;;;13.10;99.90;;;;;;4986809;28;20567;-55
2022/10/19 09:07:27;;;;;;;273.10;145.87;;;13.10;99.90;;;;;;4983855;28;20259;-56
2022/10/19 09:10:09;;;;;;;453.80;249.50;;;13.10;99.90;;;;;;4979326;28;20228;-55
2022/10/19 09:12:47;;;;;;;399.37;227.00;;;13.20;99.90;;;;;;4991934;28;20520;-57
2022/10/19 09:15:33;;;;;;;372.10;213.20;;;13.10;99.90;;;;;;4986923;28;20213;-56
2022/10/19 09:18:00;;;;;;;420.33;224.50;;;13.50;99.90;;;;;;4977139;28;20220;-57
2022/10/19 09:20:33;;;;;;;471.97;258.27;;;13.10;99.90;;;;;;4957658;28;20715;-56
2022/10/19 09:23:35;;;;;;;399.47;222.80;;;13.30;99.90;;;;;;4967343;28;20272;-56
2022/10/19 09:26:00;;;;;;;311.87;178.37;;;13.40;99.90;;;;;;4977454;28;20593;-56
2022/10/19 09:28:48;;;;;;;465.37;263.57;;;13.30;99.90;;;;;;4967814;28;20221;-56
2022/10/19 09:31:36;;;;;;;413.07;231.63;;;13.30;99.90;;;;;;4988164;28;20287;-56
2022/10/19 09:34:06;;;;;;;223.83;129.90;;;13.40;99.90;;;;;;4991452;28;20582;-56
2022/10/19 09:36:48;;;;;;;218.63;127.30;;;13.40;99.90;;;;;;4992637;28;20232;-56
2022/10/19 09:39:13;;;;;;;259.80;150.47;;;13.40;99.90;;;;;;4991089;28;20217;-57
2022/10/19 09:42:20;;;;;;;238.10;136.43;;;13.40;99.90;;;;;;4988191;28;20645;-55
2022/10/19 09:44:47;;;;;;;253.23;137.87;;;13.50;99.90;;;;;;4982776;28;20221;-54
2022/10/19 09:47:35;;;;;;;235.03;132.07;;;13.30;99.90;;;;;;4994247;28;20362;-55
2022/10/19 09:50:19;;;;;;;262.17;144.87;;;13.50;99.90;;;;;;4989258;28;20212;-55
2022/10/19 09:52:49;;;;;;;265.00;152.50;;;13.50;99.90;;;;;;4987325;28;20217;-55
2022/10/19 09:55:32;;;;;;;273.47;151.97;;;13.40;99.90;;;;;;4988787;28;20280;-55
2022/10/19 09:58:12;;;;;;;245.00;134.80;;;13.60;99.90;;;;;;4996730;28;20218;-55
2022/10/19 10:00:44;;;;;;;224.37;132.03;;;13.70;99.90;;;;;;4990537;28;20216;-55
2022/10/19 10:03:42;;;;;;;231.80;135.10;;;13.80;99.90;;;;;;4998439;28;20387;-55
2022/10/19 10:06:12;;;;;;;281.03;164.60;;;13.80;99.90;;;;;;4982485;28;20588;-54
2022/10/19 10:08:46;;;;;;;301.33;170.67;;;14.00;99.90;;;;;;4959032;28;20600;-56
2022/10/19 10:11:21;;;;;;;533.37;302.80;;;13.90;99.90;;;;;;4957448;28;20283;-56
2022/10/19 10:13:49;;;;;;;304.70;164.03;;;13.90;99.90;;;;;;4978860;28;20180;-57
2022/10/19 10:16:18;;;;;;;476.77;276.90;;;13.60;99.90;;;;;;4974177;28;20212;-57
2022/10/19 10:19:04;;;;;;;594.63;310.13;;;13.80;99.90;;;;;;5006030;22;20301;-69
2022/10/19 10:21:51;;;;;;;504.43;283.80;;;13.60;99.90;;;;;;5004910;28;20231;-69
2022/10/19 10:24:19;;;;;;;528.73;285.43;;;13.60;99.90;;;;;;5026610;28;20222;-68
2022/10/19 10:26:57;;;;;;;627.43;331.70;;;13.40;99.90;;;;;;4997827;28;20243;-69
2022/10/19 10:29:31;;;;;;;520.13;288.90;;;13.60;99.90;;;;;;5002592;28;20215;-73
2022/10/19 10:32:18;;;;;;;575.27;298.30;;;13.60;99.90;;;;;;4991424;28;20714;-69
2022/10/19 10:34:46;;;;;;;507.93;264.67;;;13.40;99.90;;;;;;4990734;28;20252;-69
2022/10/19 10:37:42;;;;;;;435.73;222.60;;;13.50;99.90;;;;;;4997452;28;20569;-69
2022/10/19 10:40:25;;;;;;;552.00;296.70;;;13.50;99.90;;;;;;4997697;28;20220;-69
2022/10/19 10:42:53;;;;;;;419.87;226.03;;;14.10;99.90;;;;;;4985124;28;20298;-71
2022/10/19 10:45:32;;;;;;;660.57;350.97;;;13.90;1.00;;;;;;4992846;28;20850;-70
2022/10/19 10:48:26;;;;;;;425.00;222.93;;;14.10;1.00;;;;;;5000088;28;20219;-71
2022/10/19 10:50:52;;;;;;;395.50;206.47;;;14.20;99.90;;;;;;5020401;28;20212;-70
2022/10/19 10:53:40;;;;;;;562.17;300.30;;;14.40;99.90;;;;;;5013945;28;20267;-70
2022/10/19 10:56:23;;;;;;;454.67;233.20;;;14.10;1.00;;;;;;5001720;28;20203;-70
2022/10/19 10:59:03;;;;;;;570.57;300.23;;;14.20;1.00;;;;;;5000789;28;20318;-69
2022/10/19 11:01:36;;;;;;;408.73;215.33;;;14.30;1.00;;;;;;5004714;28;20216;-69
2022/10/19 11:04:10;;;;;;;684.50;364.70;;;13.70;1.00;;;;;;5012930;28;20268;-69
2022/10/19 11:06:41;;;;;;;349.93;192.97;;;14.00;1.00;;;;;;5003619;28;21400;-69
2022/10/19 11:09:32;;;;;;;613.17;328.90;;;13.90;99.90;;;;;;5003050;28;20445;-69
2022/10/19 11:12:03;;;;;;;583.10;306.20;;;14.40;36.20;;;;;;5015741;28;21270;-70
2022/10/19 11:14:29;;;;;;;463.67;242.43;;;;;;;;;;5014049;28;20176;-70
2022/10/19 11:16:59;;;;;;;569.77;306.07;;;14.20;99.90;;;;;;5008247;28;20299;-70
2022/10/19 11:19:41;;;;;;;479.10;257.87;;;14.30;99.90;;;;;;5002922;28;20350;-70
2022/10/19 11:22:52;;;;;;;329.23;180.43;;;14.30;99.90;;;;;;4997477;28;20216;-70
2022/10/19 11:25:59;;;;;;;356.37;185.07;;;14.70;99.90;;;;;;4983872;28;20211;-70
2022/10/19 11:28:31;;;;;;;455.63;240.30;;;14.60;99.90;;;;;;4959580;28;20213;-70
2022/10/19 11:31:19;;;;;;;552.57;290.63;;;14.60;1.00;;;;;;4995779;28;20726;-70
2022/10/19 11:34:06;;;;;;;305.20;161.70;;;14.70;23.60;;;;;;5006166;28;20307;-70
2022/10/19 11:36:44;;;;;;;518.90;282.37;;;15.20;86.40;;;;;;5000948;28;20243;-70
2022/10/19 11:39:42;;;;;;;526.97;272.43;;;15.50;91.50;;;;;;4995623;28;20221;-70
2022/10/19 11:42:30;;;;;;;378.70;214.57;;;15.40;39.20;;;;;;4965497;28;20749;-70
2022/10/19 11:45:04;;;;;;;516.63;290.13;;;16.00;1.00;;;;;;4978773;28;20184;-70
2022/10/19 11:48:08;;;;;;;509.13;279.30;;;15.40;1.00;;;;;;4977576;28;20798;-70
2022/10/19 11:50:53;;;;;;;275.17;163.63;;;15.30;1.00;;;;;;4990020;28;22201;-70
2022/10/19 11:53:58;;;;;;;326.00;186.53;;;15.10;1.00;;;;;;5001829;28;22506;-70
2022/10/19 11:56:33;;;;;;;189.60;128.80;;;14.70;99.90;;;;;;5001137;28;20307;-70
2022/10/19 11:59:13;;;;;;;516.70;285.53;;;14.40;1.00;;;;;;4989471;28;20592;-70
2022/10/19 12:01:53;;;;;;;608.50;328.60;;;14.50;99.90;;;;;;4984920;28;20306;-69
2022/10/19 12:04:34;;;;;;;401.40;230.30;;;14.40;1.00;;;;;;5005293;28;20247;-70
2022/10/19 12:07:43;;;;;;;301.93;179.97;;;14.30;99.90;;;;;;5003243;28;20788;-70
2022/10/19 12:10:11;;;;;;;421.70;235.50;;;14.20;99.90;;;;;;4975911;28;20211;-69
2022/10/19 12:12:43;;;;;;;383.43;211.20;;;14.30;99.90;;;;;;5005145;28;20208;-70
2022/10/19 12:15:37;;;;;;;224.50;145.20;;;14.20;1.00;;;;;;5001109;28;21291;-69
2022/10/19 12:18:13;;;;;;;532.73;284.10;;;14.10;99.90;;;;;;4995332;28;20220;-70
2022/10/19 12:20:45;;;;;;;538.33;292.60;;;14.10;1.00;;;;;;4992244;28;21415;-70
2022/10/19 12:23:31;;;;;;;380.10;212.07;;;14.20;1.00;;;;;;5005160;28;20208;-69
2022/10/19 12:25:59;;;;;;;374.97;218.83;;;14.50;99.90;;;;;;5003721;28;20303;-69
2022/10/19 12:28:31;;;;;;;257.87;156.07;;;14.90;79.30;;;;;;5000144;28;20211;-69
2022/10/19 12:30:58;;;;;;;345.57;192.80;;;15.20;99.90;;;;;;5006582;28;20311;-70
2022/10/19 12:33:46;;;;;;;418.67;226.40;;;15.30;99.90;;;;;;5012938;28;20710;-70
2022/10/19 12:36:36;;;;;;;484.03;274.83;;;15.30;1.00;;;;;;5012847;28;20213;-70
2022/10/19 12:39:14;;;;;;;473.30;266.17;;;15.20;1.00;;;;;;5001896;28;20187;-70
2022/10/19 12:42:09;;;;;;;480.02;265.02;;;15.00;1.00;;;;;;5006685;28;20199;-70
2022/10/19 12:45:13;;;;;;;379.30;222.15;;;15.00;1.00;;;;;;5018452;28;20231;-70
2022/10/19 12:47:39;;;;;;;477.07;267.10;;;15.20;1.00;;;;;;4999256;28;20366;-70
2022/10/19 12:50:05;;;;;;;546.90;301.90;;;15.30;99.90;;;;;;4996387;28;20808;-70